Terminal Aerodrome Forecast
Issued by NWS Duluth, MN

Home | Current Version | Previous Version | Text Only | Print | Product List | Glossary On
Versions: 1 2 3 4 5 6 7 8 9 10 11 12 13 14 15 16 17 18 19 20 21 22 23 24
000
FTUS43 KDLH 181000 AAA
TAFDLH
TAF AMD
KDLH 181015Z 1810/1906 35008KT P6SM BKN015
     FM181600 36006KT P6SM SCT025 BKN035
     FM181800 VRB04KT P6SM FEW040
     FM190000 19005KT P6SM SKC=

USA.gov is the U.S. government's official web portal to all federal, state and local government web resources and services.